createdAt,value
2022-10-17T00:01:42.944Z,96.60
2022-10-17T00:04:10.361Z,96.42
2022-10-17T00:06:37.228Z,96.45
2022-10-17T00:09:04.161Z,96.49
2022-10-17T00:11:30.806Z,96.22
2022-10-17T00:13:57.530Z,96.20
2022-10-17T00:16:34.197Z,96.15
2022-10-17T00:19:00.759Z,96.58
2022-10-17T00:21:27.400Z,96.36
2022-10-17T00:23:54.437Z,96.62
2022-10-17T00:26:21.739Z,97.18
2022-10-17T00:28:50.114Z,97.39
2022-10-17T00:31:18.421Z,96.67
2022-10-17T00:33:45.899Z,97.01
2022-10-17T00:36:15.720Z,97.08
2022-10-17T00:38:44.204Z,97.38
2022-10-17T00:41:12.751Z,97.51
2022-10-17T00:44:26.809Z,97.41
2022-10-17T00:46:53.824Z,97.68
2022-10-17T00:49:21.421Z,97.81
2022-10-17T00:51:54.118Z,97.71
2022-10-17T00:54:25.059Z,98.30
2022-10-17T00:56:52.664Z,97.74
2022-10-17T00:59:22.012Z,97.94
2022-10-17T01:02:00.240Z,98.42
2022-10-17T01:04:26.884Z,98.29
2022-10-17T01:06:53.451Z,97.92
2022-10-17T01:09:20.146Z,97.61
2022-10-17T01:11:52.856Z,98.49
2022-10-17T01:14:41.440Z,98.31
2022-10-17T01:17:19.087Z,98.85
2022-10-17T01:20:06.814Z,99.07
2022-10-17T01:23:10.300Z,98.74
2022-10-17T01:26:09.219Z,98.96
2022-10-17T01:29:13.102Z,99.25
2022-10-17T01:31:50.003Z,99.32
2022-10-17T01:34:28.384Z,98.76
2022-10-17T01:37:00.833Z,98.73
2022-10-17T01:39:47.775Z,99.38
2022-10-17T01:42:39.316Z,99.29
2022-10-17T01:45:08.854Z,99.65
2022-10-17T01:47:35.449Z,99.45
2022-10-17T01:50:20.276Z,99.59
2022-10-17T01:52:53.286Z,99.86
2022-10-17T01:55:26.193Z,99.56
2022-10-17T01:57:58.532Z,99.67
2022-10-17T02:00:27.748Z,99.50
2022-10-17T02:02:59.284Z,99.85
2022-10-17T02:05:32.360Z,100.00
2022-10-17T02:07:58.959Z,100.00
2022-10-17T02:10:34.647Z,99.68
2022-10-17T02:13:09.886Z,99.55
2022-10-17T02:15:59.988Z,99.48
2022-10-17T02:18:47.116Z,99.81
2022-10-17T02:21:33.802Z,99.82
2022-10-17T02:24:15.649Z,100.00
2022-10-17T02:26:53.028Z,99.95
2022-10-17T02:29:24.204Z,99.82
2022-10-17T02:31:56.130Z,100.00
2022-10-17T02:34:41.406Z,100.00
2022-10-17T02:37:10.387Z,100.00
2022-10-17T02:39:39.987Z,100.00
2022-10-17T02:42:12.646Z,100.00
2022-10-17T02:44:43.333Z,100.00
2022-10-17T02:47:36.052Z,100.00
2022-10-17T02:50:04.064Z,100.00
2022-10-17T02:52:55.501Z,100.00
2022-10-17T02:55:31.347Z,100.00
2022-10-17T02:58:06.750Z,99.45
2022-10-17T03:00:35.214Z,98.83
2022-10-17T03:03:01.735Z,98.56
2022-10-17T03:05:29.623Z,98.49
2022-10-17T03:07:57.221Z,99.00
2022-10-17T03:10:23.936Z,98.94
2022-10-17T03:12:50.694Z,99.91
2022-10-17T03:15:17.440Z,100.00
2022-10-17T03:20:11.907Z,100.00
2022-10-17T03:22:38.453Z,100.00
2022-10-17T03:25:05.190Z,100.00
2022-10-17T03:27:32.102Z,100.00
2022-10-17T03:29:58.838Z,100.00
2022-10-17T03:32:25.343Z,100.00
2022-10-17T03:34:51.978Z,100.00
2022-10-17T03:37:18.517Z,100.00
2022-10-17T03:39:45.097Z,100.00
2022-10-17T03:42:11.567Z,100.00
2022-10-17T03:44:38.085Z,100.00
2022-10-17T03:47:04.602Z,100.00
2022-10-17T03:49:31.235Z,100.00
2022-10-17T03:51:57.825Z,100.00
2022-10-17T03:54:24.543Z,100.00
2022-10-17T03:56:51.249Z,100.00
2022-10-17T03:59:18.020Z,100.00
2022-10-17T04:01:45.392Z,100.00
2022-10-17T04:04:12.189Z,100.00
2022-10-17T04:06:38.988Z,100.00
2022-10-17T04:09:07.027Z,100.00
2022-10-17T04:11:33.666Z,100.00
2022-10-17T04:14:00.435Z,100.00
2022-10-17T04:16:27.499Z,100.00
2022-10-17T04:18:59.220Z,100.00
2022-10-17T04:21:27.464Z,100.00
2022-10-17T04:23:56.278Z,100.00
2022-10-17T04:26:23.510Z,100.00
2022-10-17T04:28:50.495Z,100.00
2022-10-17T04:31:18.352Z,100.00
2022-10-17T04:33:48.398Z,100.00
2022-10-17T04:36:18.563Z,100.00
2022-10-17T04:38:45.489Z,100.00
2022-10-17T04:41:14.942Z,100.00
2022-10-17T04:43:44.413Z,100.00
2022-10-17T04:46:15.034Z,100.00
2022-10-17T04:48:42.419Z,100.00
2022-10-17T04:51:13.237Z,100.00
2022-10-17T04:53:40.622Z,100.00
2022-10-17T04:56:10.205Z,100.00
2022-10-17T04:58:37.860Z,99.91
2022-10-17T05:01:06.438Z,99.98
2022-10-17T05:03:34.105Z,99.92
2022-10-17T05:06:07.342Z,99.89
2022-10-17T05:08:34.163Z,99.92
2022-10-17T05:11:03.879Z,100.00
2022-10-17T05:13:32.172Z,100.00
2022-10-17T05:16:00.810Z,100.00
2022-10-17T05:18:32.954Z,100.00
2022-10-17T05:20:59.592Z,100.00
2022-10-17T05:23:26.202Z,100.00
2022-10-17T05:25:59.136Z,99.97
2022-10-17T05:28:25.873Z,99.89
2022-10-17T05:30:52.590Z,100.00
2022-10-17T05:33:19.497Z,99.67
2022-10-17T05:35:46.096Z,99.87
2022-10-17T05:38:12.785Z,100.00
2022-10-17T05:40:39.572Z,100.00
2022-10-17T05:43:06.325Z,100.00
2022-10-17T05:45:32.892Z,100.00
2022-10-17T05:48:00.601Z,100.00
2022-10-17T05:50:27.251Z,100.00
2022-10-17T05:52:54.693Z,100.00
2022-10-17T05:55:22.200Z,100.00
2022-10-17T05:57:49.605Z,100.00
2022-10-17T06:00:16.380Z,100.00
2022-10-17T06:02:45.941Z,100.00
2022-10-17T06:05:14.015Z,100.00
2022-10-17T06:07:41.014Z,100.00
2022-10-17T06:10:08.026Z,100.00
2022-10-17T06:12:34.577Z,100.00
2022-10-17T06:15:01.074Z,100.00
2022-10-17T06:17:28.874Z,100.00
2022-10-17T06:19:55.362Z,100.00
2022-10-17T06:22:21.918Z,100.00
2022-10-17T06:24:48.520Z,100.00
2022-10-17T06:27:15.088Z,100.00
2022-10-17T06:29:41.697Z,100.00
2022-10-17T06:32:11.088Z,100.00
2022-10-17T06:34:40.876Z,100.00
2022-10-17T06:37:07.514Z,99.44
2022-10-17T06:39:35.786Z,99.17
2022-10-17T06:42:03.536Z,99.12
2022-10-17T06:44:31.739Z,99.17
2022-10-17T06:46:59.452Z,99.38
2022-10-17T06:49:26.820Z,98.38
2022-10-17T06:51:53.907Z,98.14
2022-10-17T06:54:20.939Z,97.98
2022-10-17T06:56:47.627Z,97.97
2022-10-17T06:59:15.640Z,98.02
2022-10-17T07:01:46.042Z,98.25
2022-10-17T07:04:14.033Z,98.34
2022-10-17T07:06:40.762Z,98.37
2022-10-17T07:09:07.589Z,97.97
2022-10-17T07:11:37.473Z,97.96
2022-10-17T07:14:04.136Z,97.62
2022-10-17T07:16:30.777Z,97.84
2022-10-17T07:18:59.978Z,98.22
2022-10-17T07:21:26.727Z,98.62
2022-10-17T07:23:53.332Z,99.02
2022-10-17T07:26:20.619Z,98.34
2022-10-17T07:28:51.410Z,98.30
2022-10-17T07:31:21.356Z,98.06
2022-10-17T07:33:50.551Z,97.83
2022-10-17T07:36:17.894Z,97.95
2022-10-17T07:38:44.568Z,97.66
2022-10-17T07:41:12.402Z,97.65
2022-10-17T07:43:41.692Z,97.94
2022-10-17T07:46:08.905Z,98.14
2022-10-17T07:48:35.556Z,97.78
2022-10-17T07:51:03.595Z,97.19
2022-10-17T07:53:30.509Z,97.61
2022-10-17T07:55:59.847Z,98.08
2022-10-17T07:58:28.708Z,98.38
2022-10-17T08:00:55.592Z,98.46
2022-10-17T08:03:22.324Z,98.44
2022-10-17T08:05:48.858Z,97.71
2022-10-17T08:08:15.641Z,97.61
2022-10-17T08:10:42.278Z,97.17
2022-10-17T08:13:09.363Z,95.97
2022-10-17T08:15:37.668Z,95.51
2022-10-17T08:18:04.501Z,94.80
2022-10-17T08:20:31.032Z,94.46
2022-10-17T08:22:58.547Z,94.56
2022-10-17T08:25:27.538Z,94.05
2022-10-17T08:27:54.138Z,93.24
2022-10-17T08:30:20.938Z,92.91
2022-10-17T08:32:47.490Z,92.22
2022-10-17T08:35:14.780Z,90.78
2022-10-17T08:37:42.976Z,90.83
2022-10-17T08:40:22.758Z,89.05
2022-10-17T08:43:01.581Z,89.90
2022-10-17T08:45:52.299Z,88.43
2022-10-17T08:48:23.413Z,87.58
2022-10-17T08:51:10.580Z,88.11
2022-10-17T08:53:43.527Z,87.57
2022-10-17T08:56:44.023Z,85.79
2022-10-17T08:59:27.383Z,85.89
2022-10-17T09:02:09.521Z,84.78
2022-10-17T09:04:54.580Z,83.66
2022-10-17T09:07:45.946Z,84.33
2022-10-17T09:10:51.900Z,84.11
2022-10-17T09:13:29.756Z,80.70
2022-10-17T09:16:30.309Z,83.17
2022-10-17T09:19:11.813Z,80.65
2022-10-17T09:22:02.861Z,79.51
2022-10-17T09:24:44.462Z,79.86
2022-10-17T09:27:35.405Z,76.58
2022-10-17T09:30:43.621Z,75.84
2022-10-17T09:33:28.094Z,75.33
2022-10-17T09:36:04.356Z,73.76
2022-10-17T09:38:39.170Z,72.73
2022-10-17T09:41:39.179Z,72.82
2022-10-17T09:44:20.224Z,72.19
2022-10-17T09:47:06.417Z,70.33
2022-10-17T09:49:44.903Z,70.29
2022-10-17T09:52:16.351Z,69.73
2022-10-17T09:54:45.032Z,69.29
2022-10-17T09:57:13.621Z,69.22
2022-10-17T09:59:56.304Z,68.48
2022-10-17T10:02:24.633Z,70.33
2022-10-17T10:05:16.450Z,66.18
2022-10-17T10:08:00.078Z,64.11
2022-10-17T10:10:28.759Z,66.61
2022-10-17T10:13:15.204Z,66.50
2022-10-17T10:15:46.288Z,64.63
2022-10-17T10:18:24.991Z,65.17
2022-10-17T10:21:18.168Z,61.73
2022-10-17T10:24:03.433Z,63.13
2022-10-17T10:26:43.886Z,60.88
2022-10-17T10:29:22.789Z,62.39
2022-10-17T10:31:50.936Z,59.39
2022-10-17T10:34:25.826Z,62.10
2022-10-17T10:37:02.925Z,61.25
2022-10-17T10:39:42.143Z,64.68
2022-10-17T10:42:20.598Z,63.77
2022-10-17T10:44:49.975Z,63.03
2022-10-17T10:47:26.259Z,61.52
2022-10-17T10:50:18.531Z,61.06
2022-10-17T10:53:15.309Z,61.64
2022-10-17T10:55:56.560Z,59.98
2022-10-17T10:58:54.444Z,60.13
2022-10-17T11:01:24.097Z,60.67
2022-10-17T11:04:18.560Z,63.00
2022-10-17T11:06:47.795Z,58.92
2022-10-17T11:09:34.787Z,60.91
2022-10-17T11:12:18.146Z,58.72
2022-10-17T11:14:56.410Z,61.17
2022-10-17T11:17:38.662Z,59.81
2022-10-17T11:20:34.204Z,59.05
2022-10-17T11:23:14.397Z,57.83
2022-10-17T11:25:42.142Z,57.39
2022-10-17T11:28:14.759Z,57.78
2022-10-17T11:31:12.823Z,56.20
2022-10-17T11:34:00.004Z,57.08
2022-10-17T11:36:34.848Z,56.77
2022-10-17T11:39:16.042Z,56.89
2022-10-17T11:41:47.956Z,55.57
2022-10-17T11:44:24.405Z,55.76
2022-10-17T11:46:57.378Z,56.01
2022-10-17T11:49:35.437Z,56.25
2022-10-17T11:52:37.802Z,56.79
2022-10-17T11:55:22.566Z,57.24
2022-10-17T11:58:01.295Z,57.33
2022-10-17T12:00:39.317Z,57.10
2022-10-17T12:03:23.328Z,57.33
2022-10-17T12:06:04.341Z,58.04
2022-10-17T12:08:37.777Z,58.01
2022-10-17T12:11:18.095Z,57.48
2022-10-17T12:13:49.874Z,58.30
2022-10-17T12:16:19.750Z,57.13
2022-10-17T12:18:47.355Z,56.18
2022-10-17T12:21:14.070Z,56.89
2022-10-17T12:23:41.254Z,57.01
2022-10-17T12:26:10.419Z,56.64
2022-10-17T12:28:40.169Z,56.76
2022-10-17T12:31:15.887Z,57.67
2022-10-17T12:34:03.072Z,57.98
2022-10-17T12:36:29.707Z,55.79
2022-10-17T12:39:02.346Z,56.68
2022-10-17T12:41:38.016Z,54.80
2022-10-17T12:44:13.896Z,57.03
2022-10-17T12:46:59.443Z,56.31
2022-10-17T12:49:56.490Z,55.93
2022-10-17T12:52:26.737Z,55.10
2022-10-17T12:55:13.523Z,53.73
2022-10-17T12:57:59.382Z,54.60
2022-10-17T13:00:49.871Z,54.76
2022-10-17T13:03:30.649Z,54.87
2022-10-17T13:06:05.233Z,55.37
2022-10-17T13:08:33.486Z,54.19
2022-10-17T13:11:01.254Z,55.58
2022-10-17T13:13:50.424Z,54.19
2022-10-17T13:16:29.202Z,54.95
2022-10-17T13:18:55.933Z,54.76
2022-10-17T13:21:22.616Z,54.96
2022-10-17T13:23:51.587Z,55.17
2022-10-17T13:26:22.741Z,54.88
2022-10-17T13:29:03.619Z,55.18
2022-10-17T13:31:34.093Z,55.58
2022-10-17T13:34:06.449Z,55.72
2022-10-17T13:36:35.233Z,56.34
2022-10-17T13:39:12.041Z,57.21
2022-10-17T13:41:40.675Z,58.02
2022-10-17T13:44:34.269Z,58.12
2022-10-17T13:47:01.482Z,58.87
2022-10-17T13:49:34.293Z,59.34
2022-10-17T13:52:04.497Z,59.04
2022-10-17T13:54:42.944Z,59.25
2022-10-17T13:57:25.824Z,59.57
2022-10-17T13:59:56.516Z,60.13
2022-10-17T14:02:26.743Z,60.39
2022-10-17T14:05:19.535Z,60.75
2022-10-17T14:10:42.835Z,61.02
2022-10-17T14:13:25.361Z,61.79
2022-10-17T14:15:54.826Z,61.43
2022-10-17T14:18:36.450Z,61.60
2022-10-17T14:21:36.805Z,60.77
2022-10-17T14:24:11.730Z,60.80
2022-10-17T14:26:48.146Z,60.88
2022-10-17T14:29:24.201Z,60.86
2022-10-17T14:31:58.329Z,60.57
2022-10-17T14:34:30.466Z,59.85
2022-10-17T14:36:57.426Z,60.05
2022-10-17T14:39:26.250Z,59.56
2022-10-17T14:41:53.767Z,60.37
2022-10-17T14:44:24.186Z,60.48
2022-10-17T14:46:57.767Z,60.24
2022-10-17T14:49:42.537Z,60.49
2022-10-17T14:52:15.367Z,60.89
2022-10-17T14:54:47.227Z,61.00
2022-10-17T14:57:38.114Z,61.17
2022-10-17T15:00:06.766Z,58.86
2022-10-17T15:02:33.893Z,58.97
2022-10-17T15:05:02.639Z,58.77
2022-10-17T15:07:29.565Z,58.35
2022-10-17T15:09:59.234Z,59.36
2022-10-17T15:12:26.339Z,60.22
2022-10-17T15:14:53.812Z,59.92
2022-10-17T15:17:26.694Z,59.60
2022-10-17T15:19:53.925Z,58.95
2022-10-17T15:22:23.673Z,59.29
2022-10-17T15:24:50.586Z,59.06
2022-10-17T15:27:20.005Z,59.31
2022-10-17T15:29:47.605Z,59.95
2022-10-17T15:32:15.416Z,59.23
2022-10-17T15:34:42.657Z,59.55
2022-10-17T15:37:22.228Z,59.34
2022-10-17T15:39:54.283Z,60.46
2022-10-17T15:42:29.749Z,60.80
2022-10-17T15:44:57.465Z,61.41
2022-10-17T15:47:35.387Z,61.86
2022-10-17T15:50:02.926Z,62.38
2022-10-17T15:52:29.792Z,62.48
2022-10-17T15:55:02.414Z,62.96
2022-10-17T15:57:38.164Z,63.35
2022-10-17T16:00:08.233Z,63.76
2022-10-17T16:02:36.022Z,64.24
2022-10-17T16:05:09.594Z,64.34
2022-10-17T16:07:39.526Z,65.45
2022-10-17T16:10:10.246Z,65.27
2022-10-17T16:12:41.784Z,65.28
2022-10-17T16:15:28.705Z,65.61
2022-10-17T16:17:57.214Z,65.88
2022-10-17T16:20:25.037Z,66.25
2022-10-17T16:22:53.328Z,66.39
2022-10-17T16:25:25.999Z,67.06
2022-10-17T16:28:43.774Z,66.87
2022-10-17T16:36:02.889Z,69.18
2022-10-17T16:38:29.670Z,67.94
2022-10-17T16:40:57.354Z,68.96
2022-10-17T16:43:29.629Z,69.21
2022-10-17T16:45:56.250Z,69.02
2022-10-17T16:48:26.160Z,69.18
2022-10-17T16:50:56.175Z,69.43
2022-10-17T16:53:22.917Z,69.95
2022-10-17T16:56:03.151Z,70.37
2022-10-17T16:58:32.185Z,70.61
2022-10-17T17:01:04.670Z,71.01
2022-10-17T17:03:35.408Z,71.43
2022-10-17T17:06:02.233Z,72.67
2022-10-17T17:08:30.077Z,72.11
2022-10-17T17:11:00.534Z,72.29
2022-10-17T17:13:29.202Z,72.45
2022-10-17T17:16:07.996Z,72.86
2022-10-17T17:18:34.956Z,73.44
2022-10-17T17:21:04.240Z,74.04
2022-10-17T17:23:36.215Z,74.63
2022-10-17T17:26:06.871Z,74.33
2022-10-17T17:28:36.912Z,75.58
2022-10-17T17:31:06.781Z,76.23
2022-10-17T17:33:33.912Z,76.17
2022-10-17T17:36:02.122Z,77.52
2022-10-17T17:38:30.311Z,78.32
2022-10-17T17:40:57.252Z,78.57
2022-10-17T17:43:24.527Z,77.70
2022-10-17T17:45:51.708Z,78.33
2022-10-17T17:48:18.611Z,77.79
2022-10-17T17:50:48.133Z,78.49
2022-10-17T17:53:19.404Z,78.16
2022-10-17T17:55:46.174Z,78.33
2022-10-17T17:58:13.566Z,78.48
2022-10-17T18:00:41.040Z,80.84
2022-10-17T18:03:14.883Z,79.10
2022-10-17T18:05:51.019Z,79.38
2022-10-17T18:08:18.014Z,81.32
2022-10-17T18:10:49.656Z,79.94
2022-10-17T18:13:16.997Z,80.17
2022-10-17T18:15:44.056Z,80.77
2022-10-17T18:18:10.797Z,82.91
2022-10-17T18:20:44.087Z,82.17
2022-10-17T18:23:15.338Z,81.14
2022-10-17T18:25:41.970Z,81.20
2022-10-17T18:28:09.142Z,81.23
2022-10-17T18:30:38.854Z,81.32
2022-10-17T18:33:05.624Z,81.41
2022-10-17T18:35:35.597Z,81.65
2022-10-17T18:38:04.895Z,82.07
2022-10-17T18:40:33.985Z,84.21
2022-10-17T18:43:00.690Z,83.93
2022-10-17T18:45:27.571Z,84.80
2022-10-17T18:47:54.405Z,84.62
2022-10-17T18:50:22.313Z,83.56
2022-10-17T18:52:50.889Z,83.89
2022-10-17T18:55:20.402Z,85.57
2022-10-17T18:57:49.258Z,84.48
2022-10-17T19:00:17.480Z,86.04
2022-10-17T19:02:44.195Z,84.79
2022-10-17T19:05:10.798Z,84.28
2022-10-17T19:07:37.460Z,84.72
2022-10-17T19:10:04.412Z,84.54
2022-10-17T19:12:31.169Z,85.04
2022-10-17T19:15:00.445Z,85.11
2022-10-17T19:17:27.360Z,85.38
2022-10-17T19:19:56.686Z,85.25
2022-10-17T19:22:23.433Z,87.49
2022-10-17T19:24:50.150Z,86.63
2022-10-17T19:27:16.732Z,87.44
2022-10-17T19:29:44.072Z,87.28
2022-10-17T19:32:15.710Z,86.88
2022-10-17T19:34:44.946Z,87.04
2022-10-17T19:37:11.692Z,86.67
2022-10-17T19:39:38.414Z,87.47
2022-10-17T19:42:06.948Z,88.32
2022-10-17T19:44:34.723Z,88.54
2022-10-17T19:47:04.632Z,88.62
2022-10-17T19:49:31.307Z,88.46
2022-10-17T19:51:59.100Z,88.44
2022-10-17T19:54:25.956Z,88.26
2022-10-17T19:56:55.844Z,88.94
2022-10-17T19:59:26.238Z,89.44
2022-10-17T20:01:53.125Z,89.41
2022-10-17T20:04:24.113Z,89.80
2022-10-17T20:06:50.872Z,89.87
2022-10-17T20:09:17.637Z,88.85
2022-10-17T20:11:44.790Z,88.77
2022-10-17T20:14:11.685Z,88.46
2022-10-17T20:16:38.456Z,88.73
2022-10-17T20:19:12.175Z,88.67
2022-10-17T20:21:40.892Z,90.19
2022-10-17T20:24:12.546Z,90.98
2022-10-17T20:26:40.109Z,90.88
2022-10-17T20:29:13.208Z,91.19
2022-10-17T20:31:41.302Z,91.67
2022-10-17T20:34:09.788Z,90.75
2022-10-17T20:36:39.345Z,90.92
2022-10-17T20:39:11.140Z,92.56
2022-10-17T20:41:40.717Z,91.53
2022-10-17T20:44:10.674Z,90.88
2022-10-17T20:46:44.378Z,91.05
2022-10-17T20:49:19.832Z,91.17
2022-10-17T20:51:51.489Z,91.34
2022-10-17T20:54:22.412Z,91.79
2022-10-17T20:56:49.774Z,91.98
2022-10-17T20:59:18.035Z,92.46
2022-10-17T21:01:45.839Z,91.92
2022-10-17T21:07:00.757Z,92.25
2022-10-17T21:09:32.886Z,92.01
2022-10-17T21:14:28.707Z,91.93
2022-10-17T21:16:55.496Z,91.79
2022-10-17T21:19:22.173Z,91.59
2022-10-17T21:21:49.153Z,92.10
2022-10-17T21:24:18.191Z,92.49
2022-10-17T21:26:46.981Z,92.51
2022-10-17T21:29:14.243Z,92.96
2022-10-17T21:31:45.338Z,92.63
2022-10-17T21:34:18.491Z,92.59
2022-10-17T21:36:48.412Z,92.61
2022-10-17T21:39:17.849Z,92.62
2022-10-17T21:41:45.681Z,93.25
2022-10-17T21:44:17.477Z,92.96
2022-10-17T21:46:44.738Z,93.06
2022-10-17T21:49:13.340Z,92.91
2022-10-17T21:51:40.809Z,92.67
2022-10-17T21:54:08.083Z,92.85
2022-10-17T21:56:36.337Z,92.87
2022-10-17T21:59:06.321Z,93.95
2022-10-17T22:01:37.172Z,93.67
2022-10-17T22:04:18.882Z,93.63
2022-10-17T22:06:48.303Z,93.29
2022-10-17T22:09:25.086Z,94.08
2022-10-17T22:11:54.771Z,93.86
2022-10-17T22:14:24.197Z,93.60
2022-10-17T22:16:51.514Z,93.85
2022-10-17T22:19:24.889Z,93.96
2022-10-17T22:21:55.600Z,94.52
2022-10-17T22:24:23.519Z,95.30
2022-10-17T22:26:53.138Z,94.45
2022-10-17T22:29:20.111Z,94.87
2022-10-17T22:31:46.887Z,94.70
2022-10-17T22:34:15.149Z,94.42
2022-10-17T22:36:42.392Z,95.13
2022-10-17T22:39:11.573Z,95.41
2022-10-17T22:41:38.464Z,95.76
2022-10-17T22:44:05.998Z,95.51
2022-10-17T22:46:32.983Z,95.38
2022-10-17T22:48:59.759Z,95.72
2022-10-17T22:51:28.456Z,95.96
2022-10-17T22:53:55.167Z,95.81
2022-10-17T22:56:24.901Z,95.88
2022-10-17T22:58:51.804Z,95.90
2022-10-17T23:01:21.672Z,96.10
2022-10-17T23:03:49.187Z,96.19
2022-10-17T23:06:16.490Z,95.93
2022-10-17T23:08:45.885Z,96.23
2022-10-17T23:11:13.093Z,95.65
2022-10-17T23:13:41.028Z,95.57
2022-10-17T23:16:08.711Z,96.57
2022-10-17T23:18:35.399Z,96.51
2022-10-17T23:21:02.198Z,96.03
2022-10-17T23:23:28.953Z,96.22
2022-10-17T23:25:56.496Z,97.03
2022-10-17T23:28:23.325Z,96.08
2022-10-17T23:30:50.093Z,96.79
2022-10-17T23:33:17.341Z,96.65
2022-10-17T23:35:47.182Z,97.06
2022-10-17T23:38:14.184Z,97.11
2022-10-17T23:40:44.890Z,97.24
2022-10-17T23:43:14.933Z,96.56
2022-10-17T23:45:42.577Z,97.64
2022-10-17T23:48:11.754Z,97.20
2022-10-17T23:50:38.536Z,96.91
2022-10-17T23:53:05.218Z,97.26
2022-10-17T23:55:31.970Z,97.10
2022-10-17T23:57:58.707Z,97.48
